Time;durP1;ratioP1;P1;durP2;ratioP2;P2;SDS_P1;SDS_P2;PMS_P1;PMS_P2;Temp;Humidity;BMP_temperature;BMP_pressure;BME280_temperature;BME280_humidity;BME280_pressure;Samples;Min_cycle;Max_cycle;Signal;HPM_P1;HPM_P2
2022/04/14 00:04:35;;;;;;;1.03;0.73;;;;;;;17.19;54.96;96705.84;10360334;28;20670;-23
2022/04/14 00:09:36;;;;;;;1.52;0.80;;;;;;;17.15;55.10;96703.31;10343952;28;20303;-22
2022/04/14 00:14:37;;;;;;;1.55;0.60;;;;;;;17.15;55.00;96700.78;10328055;28;20038;-22
2022/04/14 00:19:38;;;;;;;0.98;0.70;;;;;;;17.13;55.21;96702.44;10327902;28;20038;-22
2022/04/14 00:24:38;;;;;;;0.70;0.63;;;;;;;17.12;55.10;96703.28;10353068;28;20350;-22
2022/04/14 00:29:38;;;;;;;1.52;0.70;;;;;;;17.11;55.28;96707.50;10368176;28;20088;-23
2022/04/14 00:34:39;;;;;;;1.60;0.75;;;;;;;17.10;55.05;96694.84;10377709;28;20033;-22
2022/04/14 00:39:39;;;;;;;3.27;0.70;;;;;;;17.39;56.71;96695.81;10354483;28;20114;-21
2022/04/14 00:44:40;;;;;;;3.22;0.50;;;;;;;17.51;56.61;96688.28;10366153;28;20038;-22
2022/04/14 00:49:41;;;;;;;2.55;0.73;;;;;;;17.38;54.98;96701.72;10338629;28;20043;-23
2022/04/14 00:54:42;;;;;;;1.02;0.60;;;;;;;17.26;54.82;96706.72;10326178;28;20092;-23
2022/04/14 00:59:42;;;;;;;0.70;0.43;;;;;;;17.19;55.23;96710.91;10326849;28;20034;-22
2022/04/14 01:04:43;;;;;;;0.98;0.50;;;;;;;17.17;55.16;96715.09;10326211;28;20046;-22
2022/04/14 01:09:46;;;;;;;1.27;0.52;;;;;;;17.15;55.30;96718.47;10327005;28;20043;-23
2022/04/14 01:14:46;;;;;;;1.45;0.55;;;;;;;17.09;55.12;96716.75;10326483;28;20030;-24
2022/04/14 01:19:47;;;;;;;1.37;0.70;;;;;;;17.11;55.30;96726.88;10327256;28;20481;-23
2022/04/14 01:24:48;;;;;;;1.60;1.02;;;;;;;17.12;55.10;96738.69;10352787;28;20045;-22
2022/04/14 01:29:51;;;;;;;2.55;0.73;;;;;;;17.13;55.30;96740.38;10366764;28;20048;-21
2022/04/14 01:34:52;;;;;;;1.63;0.70;;;;;;;17.43;56.77;96745.63;10369759;28;20045;-22
2022/04/14 01:39:52;;;;;;;2.00;1.15;;;;;;;17.52;55.95;96741.47;10353776;28;20392;-22
2022/04/14 01:44:53;;;;;;;0.93;0.57;;;;;;;17.35;54.95;96742.19;10374720;28;20038;-23
2022/04/14 01:49:53;;;;;;;1.13;0.60;;;;;;;17.22;55.12;96746.34;10373068;28;20293;-22
2022/04/14 01:54:53;;;;;;;2.03;0.82;;;;;;;17.20;54.97;96757.28;10345129;28;20497;-22
2022/04/14 01:59:54;;;;;;;1.10;0.80;;;;;;;17.16;54.87;96758.94;10332839;28;20038;-22
2022/04/14 02:04:54;;;;;;;2.27;0.70;;;;;;;17.16;55.17;96763.16;10366913;28;20350;-22
2022/04/14 02:09:55;;;;;;;0.67;0.50;;;;;;;17.14;55.24;96770.75;10345029;28;20042;-23
2022/04/14 02:14:55;;;;;;;0.55;0.55;;;;;;;17.13;55.13;96768.19;10331897;28;20416;-22
2022/04/14 02:19:55;;;;;;;1.20;0.80;;;;;;;17.12;55.23;96769.03;10331968;28;20515;-22
2022/04/14 02:24:56;;;;;;;1.08;0.60;;;;;;;17.12;55.38;96769.91;10359860;28;20060;-23
2022/04/14 02:29:56;;;;;;;1.83;1.00;;;;;;;17.42;57.05;96777.66;10372158;28;20111;-22
2022/04/14 02:34:57;;;;;;;1.43;0.80;;;;;;;17.52;56.08;96786.16;10382413;28;20038;-22
2022/04/14 02:39:57;;;;;;;1.00;0.65;;;;;;;17.35;55.09;96778.47;10382417;28;20104;-23
2022/04/14 02:44:57;;;;;;;1.77;0.70;;;;;;;17.25;54.55;96775.88;10371925;28;20041;-22
2022/04/14 02:49:58;;;;;;;0.73;0.52;;;;;;;17.18;54.97;96789.31;10370273;28;20038;-22
2022/04/14 02:54:58;;;;;;;0.77;0.60;;;;;;;17.16;55.10;96785.94;10342265;28;20113;-23
2022/04/14 02:59:58;;;;;;;2.20;0.70;;;;;;;17.16;55.27;96796.06;10331537;28;20029;-23
2022/04/14 03:04:59;;;;;;;1.47;0.50;;;;;;;17.16;55.30;96791.00;10331040;28;20034;-22
2022/04/14 03:10:00;;;;;;;0.45;0.45;;;;;;;17.14;55.08;96788.44;10330369;28;20081;-22
2022/04/14 03:15:00;;;;;;;0.75;0.57;;;;;;;17.13;55.00;96785.91;10330087;28;20505;-22
2022/04/14 03:20:01;;;;;;;1.03;0.60;;;;;;;17.12;55.05;96782.53;10330047;28;20045;-23
2022/04/14 03:25:03;;;;;;;2.08;0.73;;;;;;;17.38;56.70;96778.50;10329750;28;20042;-22
2022/04/14 03:30:05;;;;;;;1.00;0.50;;;;;;;17.53;57.01;96782.78;10330216;28;20042;-23
2022/04/14 03:35:07;;;;;;;0.85;0.50;;;;;;;17.39;54.95;96779.34;10374520;28;20124;-23
2022/04/14 03:40:08;;;;;;;0.73;0.50;;;;;;;17.28;54.75;96780.94;10378792;28;20037;-23
2022/04/14 03:45:09;;;;;;;0.68;0.52;;;;;;;17.28;55.17;96780.94;10344418;28;20480;-22
2022/04/14 03:50:10;;;;;;;0.93;0.57;;;;;;;17.25;54.97;96775.88;10337679;28;20072;-24
2022/04/14 03:55:10;;;;;;;0.97;0.50;;;;;;;17.24;54.93;96774.19;10337219;28;20034;-23
2022/04/14 04:00:12;;;;;;;0.60;0.60;;;;;;;17.24;54.72;96769.94;10328552;28;20034;-22
2022/04/14 04:05:13;;;;;;;0.70;0.65;;;;;;;17.27;54.74;96782.63;10357963;28;20038;-22
2022/04/14 04:10:13;;;;;;;0.60;0.50;;;;;;;17.28;55.29;96786.00;10337151;28;20493;-23
2022/04/14 04:15:14;;;;;;;1.63;0.70;;;;;;;17.29;54.85;96780.97;10327667;28;20277;-22
2022/04/14 04:20:15;;;;;;;0.93;0.50;;;;;;;17.44;57.31;96783.59;10360316;28;20037;-22
2022/04/14 04:25:15;;;;;;;2.78;1.30;;;;;;;17.59;58.25;96777.75;10343884;28;20046;-23
2022/04/14 04:30:16;;;;;;;0.85;0.68;;;;;;;17.46;54.95;96781.06;10325595;28;20038;-22
2022/04/14 04:35:16;;;;;;;1.67;0.55;;;;;;;17.40;54.66;96783.59;10325723;28;20034;-22
2022/04/14 04:40:18;;;;;;;0.82;0.52;;;;;;;17.36;54.69;96784.38;10327333;28;20030;-22
2022/04/14 04:45:18;;;;;;;0.80;0.40;;;;;;;17.35;54.74;96785.19;10327680;28;20034;-22
2022/04/14 04:50:19;;;;;;;1.47;0.60;;;;;;;17.34;54.55;96791.09;10327378;28;20038;-23
2022/04/14 04:55:19;;;;;;;0.50;0.50;;;;;;;17.34;54.45;96791.09;10326686;28;20301;-22
2022/04/14 05:00:20;;;;;;;0.77;0.60;;;;;;;17.24;54.57;96774.19;10325664;28;20378;-22
2022/04/14 05:05:22;;;;;;;5.37;0.90;;;;;;;17.33;55.81;96799.53;10326459;28;20041;-22
2022/04/14 05:10:23;;;;;;;25.65;2.45;;;;;;;17.33;56.12;96804.59;10335888;28;20064;-22
2022/04/14 05:15:23;;;;;;;11.20;1.93;;;;;;;17.36;58.65;96804.63;10371938;28;20041;-24
2022/04/14 05:20:24;;;;;;;3.38;1.02;;;;;;;17.61;57.75;96821.66;10350276;28;20382;-22
2022/04/14 05:25:24;;;;;;;2.78;1.23;;;;;;;17.58;55.87;96830.06;10334411;28;20496;-22
2022/04/14 05:30:25;;;;;;;2.22;0.80;;;;;;;17.43;54.88;96829.16;10333842;28;20026;-22
2022/04/14 05:35:25;;;;;;;4.43;0.77;;;;;;;17.41;54.53;96829.13;10332764;28;20048;-22
2022/04/14 05:40:26;;;;;;;3.27;1.00;;;;;;;17.37;54.88;96831.63;10332901;28;20081;-22
2022/04/14 05:45:26;;;;;;;4.87;0.80;;;;;;;17.37;54.73;96835.03;10332321;28;20304;-22
2022/04/14 05:50:27;;;;;;;3.10;1.00;;;;;;;17.34;54.92;96841.72;10333349;28;20305;-23
2022/04/14 05:55:28;;;;;;;1.98;1.08;;;;;;;17.33;54.95;96850.16;10332908;28;20026;-22
2022/04/14 06:00:29;;;;;;;3.58;1.23;;;;;;;17.34;55.14;96856.91;10333074;28;20508;-22
2022/04/14 06:05:32;;;;;;;4.20;1.10;;;;;;;17.32;55.00;96861.09;10332185;28;20042;-23
2022/04/14 06:10:32;;;;;;;3.63;1.02;;;;;;;17.30;55.12;96865.28;10332696;28;20038;-22
2022/04/14 06:15:33;;;;;;;5.35;1.70;;;;;;;17.55;57.50;96862.09;10359217;28;20041;-23
2022/04/14 06:20:33;;;;;;;6.37;1.97;;;;;;;17.62;57.15;96859.63;10373485;28;20053;-22
2022/04/14 06:25:34;;;;;;;34.67;3.95;;;;;;;17.41;56.20;96853.59;10338560;28;20294;-23
2022/04/14 06:30:34;;;;;;;15.20;2.30;;;;;;;17.43;55.92;96852.78;10332131;28;20034;-22
2022/04/14 06:35:34;;;;;;;8.90;2.00;;;;;;;17.41;55.24;96851.06;10369737;28;20046;-22
2022/04/14 06:40:35;;;;;;;7.75;1.95;;;;;;;17.34;55.23;96851.84;10339238;28;20405;-23
2022/04/14 06:45:35;;;;;;;9.70;2.30;;;;;;;17.39;57.09;96863.72;10334778;28;20515;-23
2022/04/14 06:50:36;;;;;;;4.27;1.40;;;;;;;17.35;55.05;96869.56;10372216;28;20065;-22
2022/04/14 06:55:37;;;;;;;2.43;1.43;;;;;;;17.30;55.20;96871.22;10336732;28;20586;-23
2022/04/14 07:00:37;;;;;;;2.88;1.67;;;;;;;17.30;55.10;96875.41;10331552;28;20551;-23
2022/04/14 07:05:38;;;;;;;5.20;2.10;;;;;;;17.31;54.93;96867.00;10371539;28;20033;-22
2022/04/14 07:10:38;;;;;;;8.13;1.90;;;;;;;17.38;57.91;96856.97;10336795;28;20440;-23
2022/04/14 07:15:39;;;;;;;10.67;2.00;;;;;;;17.60;57.95;96863.84;10330293;28;20305;-22
2022/04/14 07:20:39;;;;;;;11.02;1.90;;;;;;;17.61;56.21;96857.94;10331186;28;20037;-22
2022/04/14 07:25:40;;;;;;;11.18;1.73;;;;;;;17.46;55.11;96862.06;10329430;28;20092;-22
2022/04/14 07:30:40;;;;;;;5.90;2.20;;;;;;;17.34;55.22;96860.25;10336439;28;20079;-21
2022/04/14 07:35:40;;;;;;;7.97;2.93;;;;;;;17.35;56.69;96859.44;10369344;28;20084;-22
2022/04/14 07:40:41;;;;;;;23.33;4.40;;;;;;;17.29;56.78;96859.41;10335348;28;20033;-23
2022/04/14 07:45:45;;;;;;;11.37;2.67;;;;;;;17.31;56.00;96865.31;10329349;28;20804;-22
2022/04/14 07:50:45;;;;;;;6.65;1.90;;;;;;;17.32;55.88;96864.47;10327619;28;20405;-22
2022/04/14 07:55:46;;;;;;;13.33;2.80;;;;;;;17.31;56.04;96861.94;10326257;28;20046;-22
2022/04/14 08:00:50;;;;;;;5.55;2.08;;;;;;;17.27;56.40;96865.28;10328609;28;20065;-22
2022/04/14 08:05:50;;;;;;;6.95;2.28;;;;;;;17.28;57.30;96865.31;10327948;28;20091;-23
2022/04/14 08:10:51;;;;;;;8.00;2.45;;;;;;;17.53;58.55;96873.91;10327655;28;20031;-22
2022/04/14 08:15:52;;;;;;;18.48;2.15;;;;;;;17.66;57.43;96880.75;10327768;28;20042;-23
2022/04/14 08:20:52;;;;;;;7.60;1.50;;;;;;;17.71;55.98;96884.16;10364043;28;20026;-22
2022/04/14 08:25:53;;;;;;;4.30;1.80;;;;;;;17.72;55.73;96865.56;10331999;28;20038;-22
2022/04/14 08:30:54;;;;;;;5.43;1.70;;;;;;;17.84;55.51;96884.22;10327809;28;20042;-23
2022/04/14 08:35:55;;;;;;;6.47;1.88;;;;;;;17.86;55.20;96869.03;10327602;28;20057;-23
2022/04/14 08:41:04;;;;;;;6.80;2.42;;;;;;;17.94;55.64;96880.06;10327602;28;20378;-23
2022/04/14 08:46:06;;;;;;;11.35;3.40;;;;;;;18.00;55.23;96887.69;10327324;28;20413;-22
2022/04/14 08:51:08;;;;;;;7.63;2.22;;;;;;;17.99;54.69;96894.44;10327512;28;20126;-24
2022/04/14 08:56:08;;;;;;;12.25;4.15;;;;;;;17.89;56.65;96889.31;10364659;28;20580;-22
2022/04/14 09:01:10;;;;;;;6.88;2.40;;;;;;;17.85;55.27;96885.06;10355973;28;20194;-22
2022/04/14 09:06:12;;;;;;;7.95;1.92;;;;;;;17.77;55.01;96900.25;10326757;28;20038;-22
2022/04/14 09:11:13;;;;;;;13.90;3.05;;;;;;;17.85;57.31;96895.22;10327163;28;20070;-22
2022/04/14 09:16:13;;;;;;;4.43;2.35;;;;;;;17.83;55.62;96899.44;10325395;28;20045;-22
2022/04/14 09:21:15;;;;;;;9.32;1.90;;;;;;;17.69;55.21;96893.44;10325051;28;20172;-22
2022/04/14 09:26:22;;;;;;;9.57;2.03;;;;;;;17.64;55.28;96890.00;10326518;28;20039;-22
2022/04/14 09:31:22;;;;;;;5.03;1.65;;;;;;;17.56;55.11;96884.91;10326236;28;20078;-23
2022/04/14 09:36:27;;;;;;;7.03;1.60;;;;;;;17.53;55.48;96884.03;10325943;28;20042;-23
2022/04/14 09:41:39;;;;;;;7.15;2.20;;;;;;;17.46;55.47;96873.03;10326445;28;20047;-23
2022/04/14 09:46:44;;;;;;;7.47;1.92;;;;;;;17.44;55.55;96878.91;10325906;28;20042;-23
2022/04/14 09:51:46;;;;;;;4.65;2.63;;;;;;;17.41;55.46;96872.16;10326394;28;20050;-22
2022/04/14 09:56:52;;;;;;;4.93;1.70;;;;;;;17.39;55.60;96875.50;10325958;28;20042;-22
2022/04/14 10:02:15;;;;;;;3.63;1.55;;;;;;;17.37;55.50;96867.91;10331039;28;20482;-23
2022/04/14 10:07:17;;;;;;;4.35;2.00;;;;;;;17.52;57.60;96862.97;10333566;28;20450;-22
2022/04/14 10:12:18;;;;;;;4.97;1.90;;;;;;;17.74;57.19;96858.88;10332923;28;20070;-22
2022/04/14 10:17:20;;;;;;;5.50;1.53;;;;;;;17.65;55.21;96858.81;10333166;28;20472;-23
2022/04/14 10:22:22;;;;;;;5.22;1.45;;;;;;;17.51;55.27;96860.41;10332802;28;20022;-22
2022/04/14 10:27:25;;;;;;;4.03;1.65;;;;;;;17.44;55.41;96858.69;10332971;28;20042;-22
2022/04/14 10:32:26;;;;;;;5.32;1.77;;;;;;;17.41;55.75;96848.53;10332080;28;20117;-24
2022/04/14 10:37:31;;;;;;;4.57;1.50;;;;;;;17.38;55.47;96851.03;10330878;28;20194;-23
2022/04/14 10:42:32;;;;;;;4.68;1.65;;;;;;;17.39;55.74;96851.06;10332237;28;20122;-22
2022/04/14 10:47:34;;;;;;;5.15;1.80;;;;;;;17.38;55.90;96854.44;10331034;28;20492;-22
2022/04/14 10:52:34;;;;;;;6.75;1.65;;;;;;;17.38;55.58;96848.50;10331280;28;20400;-22
2022/04/14 10:57:39;;;;;;;2.72;1.13;;;;;;;17.40;55.49;96844.31;10331610;28;20030;-22
2022/04/14 11:03:01;;;;;;;1.60;1.20;;;;;;;17.39;55.55;96842.59;10331286;28;20038;-22
2022/04/14 11:08:27;;;;;;;3.60;1.50;;;;;;;17.65;57.33;96833.50;10330898;28;20702;-22
2022/04/14 11:13:53;;;;;;;4.25;1.70;;;;;;;17.78;56.68;96835.22;10330545;28;20046;-23
2022/04/14 11:19:18;;;;;;;5.47;1.65;;;;;;;17.60;55.38;96843.59;10330300;28;20046;-23
2022/04/14 11:24:18;;;;;;;2.33;1.27;;;;;;;17.43;55.40;96831.69;10330762;28;20460;-22
2022/04/14 11:29:31;;;;;;;2.23;1.43;;;;;;;17.45;55.38;96843.50;10329917;28;20042;-22
2022/04/14 11:34:35;;;;;;;4.22;1.33;;;;;;;17.43;55.78;96841.81;10329892;28;20125;-23
2022/04/14 11:39:36;;;;;;;2.67;1.55;;;;;;;17.40;55.52;96841.78;10329908;28;20037;-23
2022/04/14 11:44:36;;;;;;;5.40;1.38;;;;;;;17.40;55.72;96846.84;10329215;28;20088;-23
2022/04/14 11:49:37;;;;;;;2.75;1.52;;;;;;;17.40;55.38;96846.84;10329843;28;20485;-22
2022/04/14 11:54:38;;;;;;;2.37;1.50;;;;;;;17.38;55.68;96844.31;10329656;28;20034;-22
2022/04/14 11:59:38;;;;;;;2.92;1.17;;;;;;;17.39;55.66;96840.94;10329018;28;20064;-22
2022/04/14 12:04:44;;;;;;;2.47;1.50;;;;;;;17.47;57.85;96840.97;10346292;28;20539;-22
2022/04/14 12:09:45;;;;;;;2.60;1.92;;;;;;;17.68;56.90;96843.63;10369740;28;20106;-22
2022/04/14 12:14:48;;;;;;;1.58;1.00;;;;;;;17.77;56.35;96844.53;10347716;28;20038;-22
2022/04/14 12:19:52;;;;;;;3.38;1.30;;;;;;;17.60;55.50;96840.22;10347411;28;20038;-23
2022/04/14 12:24:55;;;;;;;4.18;1.70;;;;;;;17.49;55.77;96841.84;10368238;28;20045;-23
2022/04/14 12:29:57;;;;;;;1.35;1.08;;;;;;;17.43;55.62;96834.22;10343551;28;20038;-23
2022/04/14 12:34:57;;;;;;;1.52;1.00;;;;;;;17.38;55.58;96836.72;10347403;28;20451;-23
2022/04/14 12:40:00;;;;;;;2.40;1.00;;;;;;;17.32;55.33;96823.16;10367705;28;20038;-23
2022/04/14 12:45:14;;;;;;;1.80;1.20;;;;;;;17.38;55.75;96839.25;10337241;28;20328;-23
2022/04/14 12:50:19;;;;;;;2.28;1.08;;;;;;;17.36;55.49;96835.00;10327185;28;20058;-23
2022/04/14 12:55:24;;;;;;;2.30;1.23;;;;;;;17.35;55.81;96839.19;10327179;28;20026;-23
2022/04/14 13:00:26;;;;;;;2.25;1.33;;;;;;;17.37;55.76;96841.75;10364358;28;20030;-23
2022/04/14 13:05:28;;;;;;;3.78;1.92;;;;;;;17.41;58.24;96829.13;10342147;28;20481;-22
2022/04/14 13:10:37;;;;;;;2.25;1.40;;;;;;;17.69;57.49;96835.19;10326758;28;20073;-23
2022/04/14 13:15:38;;;;;;;2.40;1.30;;;;;;;17.75;56.47;96825.09;10357731;28;20080;-23
2022/04/14 13:20:40;;;;;;;3.05;1.30;;;;;;;17.61;55.59;96836.84;10340977;28;20449;-22
2022/04/14 13:25:40;;;;;;;2.63;1.60;;;;;;;17.48;55.71;96830.03;10326524;28;20088;-22
2022/04/14 13:30:41;;;;;;;3.37;1.40;;;;;;;17.41;55.80;96833.38;10326968;28;20080;-23
2022/04/14 13:35:43;;;;;;;2.80;0.98;;;;;;;17.40;55.74;96831.66;10355807;28;20066;-23
2022/04/14 13:40:43;;;;;;;1.85;1.00;;;;;;;17.37;55.83;96831.63;10374912;28;20091;-23
2022/04/14 13:45:43;;;;;;;1.03;0.87;;;;;;;17.31;55.90;96826.53;10333793;28;20104;-22
2022/04/14 13:50:45;;;;;;;1.90;1.57;;;;;;;17.34;55.82;96832.41;10333887;28;20505;-22
2022/04/14 13:55:47;;;;;;;1.77;1.08;;;;;;;17.33;55.79;96830.72;10333645;28;20292;-22
2022/04/14 14:00:48;;;;;;;1.95;1.30;;;;;;;17.34;55.67;96836.66;10333025;28;20038;-23
2022/04/14 14:05:49;;;;;;;2.25;1.42;;;;;;;17.37;55.93;96831.63;10333408;28;20040;-22
2022/04/14 14:10:50;;;;;;;2.30;1.80;;;;;;;17.64;57.35;96817.44;10333129;28;20040;-23
2022/04/14 14:15:51;;;;;;;2.07;1.03;;;;;;;17.76;56.94;96814.13;10332283;28;20408;-23
2022/04/14 14:20:51;;;;;;;2.55;1.15;;;;;;;17.64;55.48;96809.00;10332218;28;20700;-22
2022/04/14 14:25:52;;;;;;;3.33;1.53;;;;;;;17.48;55.61;96804.72;10331872;28;20097;-22
2022/04/14 14:30:52;;;;;;;2.15;1.65;;;;;;;17.44;55.74;96805.53;10333076;28;20048;-22
2022/04/14 14:35:53;;;;;;;2.63;1.00;;;;;;;17.39;55.68;96800.44;10332712;28;20084;-23
2022/04/14 14:40:55;;;;;;;1.30;0.97;;;;;;;17.37;55.43;96807.19;10332206;28;20034;-23
2022/04/14 14:45:56;;;;;;;1.23;0.90;;;;;;;17.36;55.75;96809.69;10369318;28;20029;-23
2022/04/14 14:50:56;;;;;;;2.40;1.27;;;;;;;17.33;55.81;96807.13;10343430;28;20034;-23
2022/04/14 14:55:57;;;;;;;0.87;0.70;;;;;;;17.33;55.81;96802.06;10331491;28;20045;-23
2022/04/14 15:00:57;;;;;;;1.00;0.90;;;;;;;17.33;55.59;96804.59;10332304;28;20277;-23
2022/04/14 15:05:58;;;;;;;0.80;0.80;;;;;;;17.34;55.82;96813.88;10330497;28;20038;-22
2022/04/14 15:10:58;;;;;;;1.30;0.95;;;;;;;17.58;57.37;96812.34;10334681;28;20026;-22
2022/04/14 15:15:59;;;;;;;3.57;1.20;;;;;;;17.74;57.27;96823.41;10371369;28;20026;-22
2022/04/14 15:20:59;;;;;;;0.90;0.70;;;;;;;17.65;56.04;96824.19;10343857;28;20146;-22
2022/04/14 15:25:59;;;;;;;1.10;0.80;;;;;;;17.53;55.33;96833.41;10332792;28;20130;-21
2022/04/14 15:31:01;;;;;;;1.13;0.97;;;;;;;17.44;55.41;96829.16;10366677;28;20038;-22
2022/04/14 15:36:02;;;;;;;2.88;0.80;;;;;;;17.40;55.53;96836.72;10341813;28;20420;-22
2022/04/14 15:41:03;;;;;;;1.08;0.85;;;;;;;17.36;55.45;96835.88;10332057;28;20037;-21
2022/04/14 15:46:04;;;;;;;1.00;0.85;;;;;;;17.35;55.49;96838.34;10331612;28;20037;-22
2022/04/14 15:51:06;;;;;;;1.00;0.88;;;;;;;17.32;55.68;96838.34;10360527;28;20452;-22
2022/04/14 15:56:06;;;;;;;1.23;0.68;;;;;;;17.34;55.70;96841.72;10371894;28;20122;-22
2022/04/14 16:01:08;;;;;;;1.30;1.10;;;;;;;17.33;55.58;96834.97;10339767;28;20053;-23
2022/04/14 16:06:09;;;;;;;1.83;0.90;;;;;;;17.33;55.69;96840.84;10360914;28;20165;-22
2022/04/14 16:16:29;;;;;;;2.10;1.20;;;;;;;17.72;57.62;96861.38;10331174;28;20042;-22
2022/04/14 16:21:29;;;;;;;0.95;0.70;;;;;;;17.74;55.70;96864.75;10363955;28;20030;-22
2022/04/14 16:26:29;;;;;;;1.67;0.87;;;;;;;17.56;55.45;96869.72;10362381;28;20041;-22
2022/04/14 16:31:30;;;;;;;1.03;0.70;;;;;;;17.51;55.03;96870.53;10329418;28;20034;-22
2022/04/14 16:36:31;;;;;;;1.90;0.90;;;;;;;17.45;55.36;96875.56;10329800;28;20680;-22
2022/04/14 16:41:34;;;;;;;1.17;0.80;;;;;;;17.45;55.58;96875.56;10330078;28;20430;-22
2022/04/14 16:46:36;;;;;;;1.75;0.85;;;;;;;17.41;55.50;96868.78;10329438;28;20347;-21
2022/04/14 16:51:37;;;;;;;1.00;0.80;;;;;;;17.41;55.58;96883.97;10330331;28;20035;-22
2022/04/14 16:56:37;;;;;;;1.63;1.10;;;;;;;17.41;55.36;96878.91;10329319;28;20137;-22
2022/04/14 17:01:37;;;;;;;0.97;0.63;;;;;;;17.40;55.43;96893.25;10328143;28;20523;-22
2022/04/14 17:06:40;;;;;;;2.35;0.75;;;;;;;17.38;55.53;96896.59;10326766;28;20034;-22
2022/04/14 17:11:40;;;;;;;1.05;0.75;;;;;;;17.37;55.45;96899.97;10333318;28;20397;-22
2022/04/14 17:16:43;;;;;;;1.85;1.10;;;;;;;17.62;56.81;96894.22;10334884;28;20037;-23
2022/04/14 17:27:03;;;;;;;1.40;0.80;;;;;;;17.63;55.47;96900.97;10368216;28;20493;-22
2022/04/14 17:32:04;;;;;;;1.45;0.70;;;;;;;17.49;55.40;96903.41;10334546;28;20039;-22
2022/04/14 17:37:04;;;;;;;1.40;0.85;;;;;;;17.43;55.53;96910.13;10334294;28;20053;-22
2022/04/14 17:42:04;;;;;;;0.93;0.80;;;;;;;17.41;55.71;96920.25;10335570;28;20045;-22
2022/04/14 17:47:05;;;;;;;0.80;0.65;;;;;;;17.40;55.65;96927.84;10338900;28;20125;-23
2022/04/14 17:52:07;;;;;;;0.80;0.63;;;;;;;17.39;55.66;96938.78;10343900;28;20031;-22
2022/04/14 17:57:07;;;;;;;0.80;0.77;;;;;;;17.35;55.62;96940.44;10329890;28;20046;-22
2022/04/14 18:02:12;;;;;;;0.60;0.60;;;;;;;17.37;55.75;96953.09;10342768;28;20022;-22
2022/04/14 18:07:13;;;;;;;0.70;0.65;;;;;;;17.35;55.72;96954.75;10366795;28;20030;-22
2022/04/14 18:12:14;;;;;;;2.50;0.90;;;;;;;17.35;55.71;96950.56;10362068;28;20042;-22
2022/04/14 18:17:14;;;;;;;1.50;1.08;;;;;;;17.55;58.05;96958.31;10331948;28;20041;-22
2022/04/14 18:22:15;;;;;;;1.48;1.25;;;;;;;17.74;57.15;96975.34;10365692;28;20044;-23
2022/04/14 18:27:17;;;;;;;4.20;1.33;;;;;;;17.71;56.91;96978.69;10342049;28;20723;-22
2022/04/14 18:32:17;;;;;;;6.05;1.60;;;;;;;17.59;55.73;96985.34;10354613;28;20308;-23
2022/04/14 18:37:18;;;;;;;10.23;2.13;;;;;;;17.48;55.44;96992.84;10326261;28;20053;-23
2022/04/14 18:42:18;;;;;;;2.63;0.83;;;;;;;17.44;55.72;96996.22;10327669;28;20297;-22
2022/04/14 18:47:19;;;;;;;6.82;0.75;;;;;;;17.41;55.68;97005.47;10327258;28;20045;-22
2022/04/14 18:52:19;;;;;;;2.28;0.95;;;;;;;17.40;55.54;97011.34;10330863;28;20405;-22
2022/04/14 18:57:20;;;;;;;1.88;0.90;;;;;;;17.39;55.69;97027.34;10326815;28;20117;-22
2022/04/14 19:02:20;;;;;;;3.30;1.23;;;;;;;17.36;55.78;97040.00;10324585;28;20104;-23
2022/04/14 19:07:21;;;;;;;1.70;0.80;;;;;;;17.32;55.68;97035.72;10324654;28;20035;-22
2022/04/14 19:12:21;;;;;;;1.40;0.90;;;;;;;17.34;55.51;97056.81;10326165;28;20042;-22
2022/04/14 19:17:21;;;;;;;1.47;1.00;;;;;;;17.41;57.64;97051.03;10347602;28;20304;-22
2022/04/14 19:22:22;;;;;;;1.63;1.07;;;;;;;17.71;56.98;97071.53;10326812;28;20030;-22
2022/04/14 19:27:22;;;;;;;1.30;0.80;;;;;;;17.76;55.41;97062.28;10342146;28;20305;-22
2022/04/14 19:32:23;;;;;;;2.73;0.80;;;;;;;17.60;55.34;97058.78;10365313;28;20559;-22
2022/04/14 19:37:23;;;;;;;1.50;0.77;;;;;;;17.50;55.40;97058.69;10326481;28;20289;-22
2022/04/14 19:42:24;;;;;;;1.65;0.80;;;;;;;17.43;55.82;97056.94;10325643;28;20301;-22
2022/04/14 19:47:24;;;;;;;1.17;0.67;;;;;;;17.33;55.40;97037.41;10325302;28;20042;-22
2022/04/14 19:52:24;;;;;;;1.13;0.98;;;;;;;17.36;55.39;97057.69;10356530;28;20112;-22
2022/04/14 19:57:25;;;;;;;0.50;0.50;;;;;;;17.35;55.49;97061.03;10365453;28;20049;-23
2022/04/14 20:02:26;;;;;;;1.15;0.93;;;;;;;17.36;56.00;97060.22;10323199;28;20339;-22
2022/04/14 20:07:26;;;;;;;1.10;0.80;;;;;;;17.35;55.14;97073.69;10322357;28;20050;-22
2022/04/14 20:12:28;;;;;;;0.80;0.57;;;;;;;17.34;55.62;97070.28;10324362;28;20653;-22
2022/04/14 20:17:28;;;;;;;1.85;1.38;;;;;;;17.32;55.76;97071.97;10324645;28;20038;-23
2022/04/14 20:22:28;;;;;;;1.20;0.70;;;;;;;17.58;56.46;97072.28;10364150;28;20036;-22
2022/04/14 20:27:30;;;;;;;1.83;1.00;;;;;;;17.75;57.27;97078.31;10363986;28;20773;-22
2022/04/14 20:32:30;;;;;;;1.30;0.90;;;;;;;17.68;55.84;97086.69;10363945;28;20653;-22
2022/04/14 20:37:30;;;;;;;1.90;0.98;;;;;;;17.55;55.40;97092.47;10324987;28;20045;-22
2022/04/14 20:42:32;;;;;;;0.83;0.60;;;;;;;17.43;55.62;97092.38;10323006;28;20145;-22
2022/04/14 20:47:32;;;;;;;0.50;0.50;;;;;;;17.40;55.40;97094.88;10323528;28;20069;-22
2022/04/14 20:52:32;;;;;;;1.15;0.82;;;;;;;17.43;55.71;97110.09;10329708;28;20038;-22
2022/04/14 20:57:34;;;;;;;1.13;0.95;;;;;;;17.41;55.50;97111.75;10323297;28;20045;-22
2022/04/14 21:02:34;;;;;;;0.90;0.80;;;;;;;17.41;55.52;97117.66;10325808;28;20563;-25
2022/04/14 21:07:36;;;;;;;0.83;0.60;;;;;;;17.40;55.49;97126.09;10320211;28;20095;-22
2022/04/14 21:12:36;;;;;;;0.82;0.80;;;;;;;17.41;55.56;97124.41;10322626;28;20034;-22
2022/04/14 21:17:37;;;;;;;0.97;0.73;;;;;;;17.41;55.67;97132.00;10322678;28;20046;-23
2022/04/14 21:22:38;;;;;;;1.07;0.90;;;;;;;17.43;56.68;97125.28;10322527;28;20109;-22
2022/04/14 21:27:39;;;;;;;1.20;0.98;;;;;;;17.68;57.29;97134.81;10324942;28;20301;-22
2022/04/14 21:32:40;;;;;;;0.90;0.60;;;;;;;17.76;56.78;97135.72;10359622;28;20054;-23
2022/04/14 21:37:40;;;;;;;0.70;0.70;;;;;;;17.63;55.48;97133.91;10322539;28;20664;-22
2022/04/14 21:42:42;;;;;;;1.27;0.73;;;;;;;17.51;55.50;97133.78;10322086;28;20088;-22
2022/04/14 21:47:42;;;;;;;1.02;0.70;;;;;;;17.45;55.64;97133.72;10342654;28;20492;-23
2022/04/14 21:52:43;;;;;;;0.80;0.80;;;;;;;17.43;55.65;97137.94;10366448;28;20030;-22
2022/04/14 21:57:43;;;;;;;2.25;0.75;;;;;;;17.40;55.60;97133.69;10359742;28;20042;-22
2022/04/14 22:02:44;;;;;;;0.85;0.70;;;;;;;17.39;55.72;97134.50;10348617;28;20099;-22
2022/04/14 22:07:45;;;;;;;2.30;0.70;;;;;;;17.36;55.62;97134.50;10370039;28;20042;-21
2022/04/14 22:12:45;;;;;;;3.70;0.60;;;;;;;17.37;55.72;97135.31;10369615;28;20500;-22
2022/04/14 22:17:45;;;;;;;0.50;0.47;;;;;;;17.29;55.58;97114.97;10369550;28;20035;-23
2022/04/14 22:22:46;;;;;;;2.03;1.00;;;;;;;17.36;55.46;97126.03;10332875;28;20048;-22
2022/04/14 22:27:46;;;;;;;2.10;1.10;;;;;;;17.53;58.41;97127.06;10352854;28;20081;-21
2022/04/14 22:32:47;;;;;;;0.95;0.80;;;;;;;17.71;56.39;97137.38;10368592;28;20042;-22
2022/04/14 22:37:47;;;;;;;1.57;0.70;;;;;;;17.74;55.45;97139.94;10332760;28;20102;-21
2022/04/14 22:42:48;;;;;;;1.42;0.50;;;;;;;17.57;55.30;97133.88;10346020;28;20030;-22
2022/04/14 22:47:50;;;;;;;1.13;0.90;;;;;;;17.48;55.29;97138.84;10367973;28;20030;-22
2022/04/14 22:52:51;;;;;;;0.60;0.60;;;;;;;17.42;55.48;97137.06;10331523;28;20401;-21
2022/04/14 22:57:51;;;;;;;1.75;0.90;;;;;;;17.41;55.66;97144.66;10331361;28;20061;-22
2022/04/14 23:02:52;;;;;;;0.87;0.80;;;;;;;17.37;55.63;97130.25;10330855;28;20035;-22
2022/04/14 23:07:52;;;;;;;1.58;0.70;;;;;;;17.38;55.52;97131.97;10331413;28;20069;-22
2022/04/14 23:12:52;;;;;;;0.73;0.50;;;;;;;17.36;55.50;97133.63;10330993;28;20038;-22
2022/04/14 23:17:53;;;;;;;0.70;0.70;;;;;;;17.37;55.55;97147.97;10331284;28;20125;-22
2022/04/14 23:22:54;;;;;;;1.15;0.77;;;;;;;17.36;55.51;97147.16;10330730;28;20045;-22
2022/04/14 23:27:54;;;;;;;0.80;0.70;;;;;;;17.36;55.87;97136.16;10330606;28;20046;-23
2022/04/14 23:32:54;;;;;;;1.00;0.90;;;;;;;17.58;56.97;97135.56;10329917;28;20481;-22